createdAt,value
2019-02-26T00:00:56.473Z,99.90
2019-02-26T00:03:26.272Z,99.90
2019-02-26T00:05:54.261Z,99.90
2019-02-26T00:08:21.848Z,99.90
2019-02-26T00:10:50.166Z,99.90
2019-02-26T00:13:20.222Z,99.90
2019-02-26T00:15:48.321Z,99.90
2019-02-26T00:18:21.369Z,99.90
2019-02-26T00:20:47.647Z,99.90
2019-02-26T00:23:15.661Z,99.90
2019-02-26T00:25:41.800Z,99.90
2019-02-26T00:28:08.053Z,99.90
2019-02-26T00:30:37.913Z,99.90
2019-02-26T00:33:05.412Z,99.90
2019-02-26T00:35:31.525Z,99.90
2019-02-26T00:38:01.592Z,99.90
2019-02-26T00:40:27.665Z,99.90
2019-02-26T00:42:55.020Z,99.90
2019-02-26T00:45:26.942Z,99.90
2019-02-26T00:47:50.764Z,99.90
2019-02-26T00:50:18.060Z,99.90
2019-02-26T00:52:44.163Z,99.90
2019-02-26T00:55:12.433Z,99.90
2019-02-26T00:57:40.675Z,99.90
2019-02-26T01:00:12.362Z,99.90
2019-02-26T01:02:38.666Z,99.90
2019-02-26T01:05:10.804Z,99.90
2019-02-26T01:07:37.226Z,99.90
2019-02-26T01:10:07.633Z,99.90
2019-02-26T01:12:37.668Z,99.90
2019-02-26T01:15:11.576Z,99.90
2019-02-26T01:17:40.115Z,99.90
2019-02-26T01:20:09.466Z,99.90
2019-02-26T01:22:37.750Z,99.90
2019-02-26T01:25:10.107Z,99.90
2019-02-26T01:27:36.189Z,99.90
2019-02-26T01:30:08.337Z,99.90
2019-02-26T01:32:34.396Z,99.90
2019-02-26T01:35:03.298Z,99.90
2019-02-26T01:37:32.042Z,99.90
2019-02-26T01:39:59.307Z,99.90
2019-02-26T01:42:27.178Z,99.90
2019-02-26T01:44:55.695Z,99.90
2019-02-26T01:47:24.166Z,99.90
2019-02-26T01:49:52.119Z,99.90
2019-02-26T01:52:18.180Z,99.90
2019-02-26T01:54:44.226Z,99.90
2019-02-26T01:57:10.380Z,99.90
2019-02-26T01:59:36.427Z,99.90
2019-02-26T02:02:04.547Z,99.90
2019-02-26T02:04:32.101Z,99.90
2019-02-26T02:06:59.702Z,99.90
2019-02-26T02:09:28.843Z,99.90
2019-02-26T02:11:57.417Z,99.90
2019-02-26T02:14:23.867Z,99.90
2019-02-26T02:16:50.207Z,99.90
2019-02-26T02:19:20.861Z,99.90
2019-02-26T02:21:49.334Z,99.90
2019-02-26T02:24:17.379Z,99.90
2019-02-26T02:26:49.793Z,99.90
2019-02-26T02:29:16.612Z,99.90
2019-02-26T02:31:43.330Z,99.90
2019-02-26T02:34:12.150Z,99.90
2019-02-26T02:36:38.220Z,99.90
2019-02-26T02:39:10.344Z,99.90
2019-02-26T02:41:35.284Z,99.90
2019-02-26T02:44:01.420Z,99.90
2019-02-26T02:46:30.904Z,99.90
2019-02-26T02:48:57.342Z,99.90
2019-02-26T02:51:28.023Z,99.90
2019-02-26T02:53:56.669Z,99.90
2019-02-26T02:56:23.204Z,99.90
2019-02-26T02:58:51.696Z,99.90
2019-02-26T03:01:20.416Z,99.90
2019-02-26T03:03:50.520Z,99.90
2019-02-26T03:06:16.684Z,99.90
2019-02-26T03:08:45.116Z,99.90
2019-02-26T03:11:11.536Z,99.90
2019-02-26T03:13:40.241Z,99.90
2019-02-26T03:16:06.064Z,99.90
2019-02-26T03:18:32.143Z,99.90
2019-02-26T03:20:59.988Z,99.90
2019-02-26T03:23:27.098Z,99.90
2019-02-26T03:25:55.105Z,99.90
2019-02-26T03:28:21.507Z,99.90
2019-02-26T03:30:52.035Z,99.90
2019-02-26T03:33:21.209Z,99.90
2019-02-26T03:35:48.039Z,99.90
2019-02-26T03:38:15.291Z,99.90
2019-02-26T03:40:42.491Z,99.90
2019-02-26T03:43:10.863Z,99.90
2019-02-26T03:45:37.923Z,99.90
2019-02-26T03:48:04.791Z,99.90
2019-02-26T03:50:32.494Z,99.90
2019-02-26T03:52:58.802Z,99.90
2019-02-26T03:55:24.932Z,99.90
2019-02-26T03:57:56.003Z,99.90
2019-02-26T04:00:21.159Z,99.90
2019-02-26T04:02:49.058Z,99.90
2019-02-26T04:05:22.135Z,99.90
2019-02-26T04:07:51.686Z,99.90
2019-02-26T04:10:16.952Z,99.90
2019-02-26T04:12:45.052Z,99.90
2019-02-26T04:15:18.743Z,99.90
2019-02-26T04:17:44.839Z,99.90
2019-02-26T04:20:12.634Z,99.90
2019-02-26T04:22:49.889Z,99.90
2019-02-26T04:25:27.228Z,99.90
2019-02-26T04:28:10.825Z,99.90
2019-02-26T04:30:57.963Z,99.90
2019-02-26T04:33:41.483Z,99.90
2019-02-26T04:36:23.241Z,99.90
2019-02-26T04:39:26.426Z,99.90
2019-02-26T04:42:26.815Z,99.90
2019-02-26T04:45:09.185Z,99.90
2019-02-26T04:48:00.552Z,99.90
2019-02-26T04:50:28.625Z,99.90
2019-02-26T04:52:58.321Z,99.90
2019-02-26T04:55:21.871Z,99.90
2019-02-26T04:57:53.995Z,99.90
2019-02-26T05:00:20.427Z,99.90
2019-02-26T05:02:46.605Z,99.90
2019-02-26T05:05:14.036Z,99.90
2019-02-26T05:07:46.518Z,99.90
2019-02-26T05:10:26.413Z,99.90
2019-02-26T05:12:56.200Z,99.90
2019-02-26T05:15:23.289Z,99.90
2019-02-26T05:17:51.606Z,99.90
2019-02-26T05:20:19.003Z,99.90
2019-02-26T05:22:45.187Z,99.90
2019-02-26T05:25:19.187Z,99.90
2019-02-26T05:27:47.490Z,99.90
2019-02-26T05:30:15.592Z,99.90
2019-02-26T05:32:40.570Z,99.90
2019-02-26T05:35:06.677Z,99.90
2019-02-26T05:37:35.356Z,99.90
2019-02-26T05:40:00.780Z,99.90
2019-02-26T05:42:28.847Z,99.90
2019-02-26T05:44:57.402Z,99.90
2019-02-26T05:47:26.129Z,99.90
2019-02-26T05:49:52.053Z,99.90
2019-02-26T05:52:18.113Z,99.90
2019-02-26T05:54:44.407Z,99.90
2019-02-26T05:57:25.656Z,99.90
2019-02-26T05:59:42.481Z,99.90
2019-02-26T06:02:11.318Z,99.90
2019-02-26T06:04:43.888Z,99.90
2019-02-26T06:07:09.149Z,99.90
2019-02-26T06:09:39.112Z,99.90
2019-02-26T06:12:05.925Z,99.90
2019-02-26T06:14:33.249Z,99.90
2019-02-26T06:17:01.331Z,99.90
2019-02-26T06:19:42.948Z,99.90
2019-02-26T06:22:14.492Z,99.90
2019-02-26T06:24:38.303Z,99.90
2019-02-26T06:27:08.633Z,99.90
2019-02-26T06:29:38.980Z,99.90
2019-02-26T06:32:13.034Z,99.90
2019-02-26T06:34:40.161Z,99.90
2019-02-26T06:37:16.400Z,99.90
2019-02-26T06:39:43.014Z,99.90
2019-02-26T06:42:12.044Z,99.90
2019-02-26T06:44:41.281Z,99.90
2019-02-26T06:47:06.894Z,99.90
2019-02-26T06:49:34.492Z,99.90
2019-02-26T06:52:00.659Z,99.90
2019-02-26T06:54:28.923Z,99.90
2019-02-26T06:56:55.123Z,99.90
2019-02-26T06:59:33.855Z,99.90
2019-02-26T07:01:58.921Z,99.90
2019-02-26T07:04:27.052Z,99.90
2019-02-26T07:06:55.167Z,99.90
2019-02-26T07:09:22.106Z,99.90
2019-02-26T07:11:49.029Z,99.90
2019-02-26T07:14:15.260Z,99.90
2019-02-26T07:16:41.843Z,99.90
2019-02-26T07:19:09.118Z,99.90
2019-02-26T07:21:37.997Z,99.90
2019-02-26T07:24:07.751Z,99.90
2019-02-26T07:26:36.167Z,99.90
2019-02-26T07:29:03.450Z,99.90
2019-02-26T07:31:33.626Z,99.90
2019-02-26T07:34:03.179Z,99.90
2019-02-26T07:36:29.415Z,99.90
2019-02-26T07:38:56.592Z,99.90
2019-02-26T07:41:23.633Z,99.90
2019-02-26T07:43:54.091Z,99.90
2019-02-26T07:46:21.492Z,99.90
2019-02-26T07:48:53.959Z,99.90
2019-02-26T07:51:19.597Z,99.90
2019-02-26T07:53:50.576Z,99.90
2019-02-26T07:56:13.937Z,99.90
2019-02-26T07:58:42.954Z,99.90
2019-02-26T08:01:12.299Z,99.90
2019-02-26T08:03:38.370Z,99.90
2019-02-26T08:06:06.750Z,99.90
2019-02-26T08:08:33.904Z,99.90
2019-02-26T08:11:01.959Z,99.90
2019-02-26T08:13:31.569Z,99.90
2019-02-26T08:15:59.615Z,99.90
2019-02-26T08:18:25.568Z,99.90
2019-02-26T08:20:55.536Z,99.90
2019-02-26T08:23:22.060Z,99.90
2019-02-26T08:25:52.275Z,99.90
2019-02-26T08:28:20.815Z,99.90
2019-02-26T08:30:47.910Z,99.90
2019-02-26T08:33:15.432Z,99.90
2019-02-26T08:35:41.569Z,99.90
2019-02-26T08:38:07.779Z,99.90
2019-02-26T08:40:35.282Z,99.90
2019-02-26T08:43:02.803Z,99.90
2019-02-26T08:45:30.939Z,99.90
2019-02-26T08:48:00.929Z,99.90
2019-02-26T08:50:33.081Z,99.90
2019-02-26T08:52:58.657Z,99.90
2019-02-26T08:55:25.908Z,99.90
2019-02-26T08:57:54.049Z,99.90
2019-02-26T09:00:21.572Z,99.90
2019-02-26T09:02:56.719Z,99.90
2019-02-26T09:05:25.442Z,99.90
2019-02-26T09:07:51.320Z,99.90
2019-02-26T09:10:20.325Z,99.90
2019-02-26T09:12:48.580Z,99.90
2019-02-26T09:15:20.437Z,99.90
2019-02-26T09:17:46.755Z,99.90
2019-02-26T09:20:15.470Z,99.90
2019-02-26T09:22:48.006Z,99.90
2019-02-26T09:25:23.241Z,99.90
2019-02-26T09:27:44.396Z,99.90
2019-02-26T09:30:15.958Z,99.90
2019-02-26T09:32:44.599Z,99.90
2019-02-26T09:35:20.398Z,99.90
2019-02-26T09:37:50.211Z,99.90
2019-02-26T09:40:23.106Z,99.90
2019-02-26T09:42:51.704Z,99.90
2019-02-26T09:45:23.667Z,99.90
2019-02-26T09:47:51.994Z,99.90
2019-02-26T09:50:19.912Z,99.90
2019-02-26T09:52:50.290Z,99.90
2019-02-26T09:55:17.792Z,99.90
2019-02-26T09:58:04.094Z,99.90
2019-02-26T10:00:30.572Z,99.90
2019-02-26T10:02:58.689Z,99.90
2019-02-26T10:05:24.679Z,99.90
2019-02-26T10:07:54.335Z,99.80
2019-02-26T10:10:25.391Z,99.80
2019-02-26T10:12:53.756Z,99.70
2019-02-26T10:15:19.518Z,99.50
2019-02-26T10:17:46.911Z,99.50
2019-02-26T10:20:24.773Z,99.60
2019-02-26T10:22:57.812Z,99.30
2019-02-26T10:25:23.448Z,99.00
2019-02-26T10:27:54.299Z,98.60
2019-02-26T10:30:21.955Z,98.10
2019-02-26T10:32:49.409Z,97.60
2019-02-26T10:35:25.629Z,97.60
2019-02-26T10:37:53.406Z,97.20
2019-02-26T10:40:20.220Z,97.10
2019-02-26T10:42:47.864Z,96.60
2019-02-26T10:45:16.462Z,96.70
2019-02-26T10:47:43.233Z,96.50
2019-02-26T10:50:16.235Z,96.00
2019-02-26T10:52:41.847Z,95.80
2019-02-26T10:55:12.789Z,95.60
2019-02-26T10:57:38.506Z,95.30
2019-02-26T11:00:10.863Z,95.30
2019-02-26T11:02:36.756Z,94.80
2019-02-26T11:05:08.649Z,94.40
2019-02-26T11:07:40.461Z,94.00
2019-02-26T11:10:08.789Z,93.60
2019-02-26T11:12:34.837Z,93.40
2019-02-26T11:15:11.573Z,93.00
2019-02-26T11:17:37.722Z,92.80
2019-02-26T11:20:10.206Z,92.50
2019-02-26T11:22:36.287Z,92.60
2019-02-26T11:25:05.398Z,92.40
2019-02-26T11:27:31.432Z,91.80
2019-02-26T11:29:59.476Z,91.60
2019-02-26T11:32:28.244Z,91.50
2019-02-26T11:34:55.745Z,91.20
2019-02-26T11:37:24.922Z,91.10
2019-02-26T11:39:52.725Z,90.80
2019-02-26T11:42:23.188Z,90.20
2019-02-26T11:44:50.667Z,89.80
2019-02-26T11:47:18.410Z,89.00
2019-02-26T11:49:46.634Z,87.90
2019-02-26T11:52:12.830Z,87.40
2019-02-26T11:54:40.204Z,87.20
2019-02-26T11:57:10.149Z,86.40
2019-02-26T11:59:38.566Z,86.00
2019-02-26T12:02:06.379Z,84.60
2019-02-26T12:04:32.665Z,83.60
2019-02-26T12:07:01.039Z,82.90
2019-02-26T12:09:32.986Z,82.60
2019-02-26T12:12:00.812Z,80.60
2019-02-26T12:14:27.084Z,79.60
2019-02-26T12:16:59.623Z,78.80
2019-02-26T12:19:28.196Z,79.20
2019-02-26T12:21:57.453Z,78.50
2019-02-26T12:24:28.891Z,77.70
2019-02-26T12:26:55.703Z,76.80
2019-02-26T12:29:23.594Z,76.60
2019-02-26T12:31:58.341Z,75.50
2019-02-26T12:34:26.015Z,75.70
2019-02-26T12:36:53.723Z,73.80
2019-02-26T12:39:22.237Z,74.10
2019-02-26T12:41:51.871Z,73.60
2019-02-26T12:44:17.998Z,72.60
2019-02-26T12:46:44.956Z,72.80
2019-02-26T12:49:18.000Z,72.00
2019-02-26T12:51:45.195Z,71.40
2019-02-26T12:54:15.556Z,71.10
2019-02-26T12:56:42.359Z,69.40
2019-02-26T12:59:08.561Z,68.60
2019-02-26T13:01:39.534Z,67.30
2019-02-26T13:04:09.455Z,66.60
2019-02-26T13:06:40.532Z,66.00
2019-02-26T13:09:07.215Z,69.10
2019-02-26T13:11:33.890Z,67.10
2019-02-26T13:14:05.131Z,68.70
2019-02-26T13:16:32.961Z,67.30
2019-02-26T13:19:04.308Z,63.70
2019-02-26T13:21:28.395Z,62.10
2019-02-26T13:23:58.648Z,61.40
2019-02-26T13:26:23.905Z,60.70
2019-02-26T13:28:56.155Z,59.90
2019-02-26T13:31:22.550Z,59.90
2019-02-26T13:33:49.432Z,58.90
2019-02-26T13:36:17.128Z,57.80
2019-02-26T13:38:48.299Z,57.50
2019-02-26T13:41:29.034Z,57.00
2019-02-26T13:43:40.416Z,55.90
2019-02-26T13:46:06.672Z,55.20
2019-02-26T13:48:33.003Z,54.80
2019-02-26T13:51:01.734Z,54.90
2019-02-26T13:53:29.963Z,54.60
2019-02-26T13:55:58.148Z,54.10
2019-02-26T13:58:24.299Z,54.00
2019-02-26T14:00:52.582Z,54.00
2019-02-26T14:03:19.763Z,54.20
2019-02-26T14:05:45.957Z,54.00
2019-02-26T14:08:14.473Z,53.30
2019-02-26T14:10:40.503Z,53.30
2019-02-26T14:13:08.007Z,53.90
2019-02-26T14:15:35.720Z,53.30
2019-02-26T14:18:02.292Z,53.20
2019-02-26T14:20:29.559Z,53.00
2019-02-26T14:22:55.745Z,53.40
2019-02-26T14:25:21.817Z,52.80
2019-02-26T14:27:47.875Z,52.50
2019-02-26T14:30:19.749Z,52.10
2019-02-26T14:32:46.131Z,51.30
2019-02-26T14:35:15.139Z,51.00
2019-02-26T14:37:43.538Z,50.90
2019-02-26T14:40:16.820Z,50.30
2019-02-26T14:42:45.878Z,51.30
2019-02-26T14:45:14.969Z,50.30
2019-02-26T14:47:41.059Z,50.10
2019-02-26T14:50:11.042Z,50.30
2019-02-26T14:52:37.386Z,49.80
2019-02-26T14:55:04.579Z,49.20
2019-02-26T14:57:30.681Z,49.30
2019-02-26T14:59:56.907Z,49.70
2019-02-26T15:02:23.100Z,49.30
2019-02-26T15:04:51.220Z,49.30
2019-02-26T15:07:17.322Z,49.40
2019-02-26T15:09:43.367Z,49.20
2019-02-26T15:12:09.448Z,49.00
2019-02-26T15:14:35.513Z,48.40
2019-02-26T15:17:01.657Z,47.50
2019-02-26T15:19:29.600Z,47.40
2019-02-26T15:21:57.218Z,47.10
2019-02-26T15:24:23.531Z,47.10
2019-02-26T15:26:50.392Z,47.80
2019-02-26T15:29:18.891Z,47.50
2019-02-26T15:31:48.424Z,47.50
2019-02-26T15:34:14.760Z,47.40
2019-02-26T15:36:42.796Z,47.90
2019-02-26T15:39:09.187Z,48.70
2019-02-26T15:41:38.403Z,48.90
2019-02-26T15:44:04.448Z,49.20
2019-02-26T15:46:30.867Z,49.10
2019-02-26T15:48:59.308Z,49.50
2019-02-26T15:51:26.469Z,49.70
2019-02-26T15:53:55.296Z,50.20
2019-02-26T15:56:20.541Z,51.10
2019-02-26T15:58:46.798Z,50.90
2019-02-26T16:01:15.183Z,50.80
2019-02-26T16:03:42.137Z,50.90
2019-02-26T16:06:08.234Z,50.90
2019-02-26T16:08:34.838Z,51.40
2019-02-26T16:11:01.224Z,51.40
2019-02-26T16:13:27.333Z,50.90
2019-02-26T16:15:56.616Z,50.20
2019-02-26T16:18:24.722Z,49.40
2019-02-26T16:20:55.114Z,48.80
2019-02-26T16:23:21.269Z,48.30
2019-02-26T16:25:48.694Z,47.30
2019-02-26T16:28:14.716Z,46.50
2019-02-26T16:30:40.859Z,46.00
2019-02-26T16:33:11.259Z,45.30
2019-02-26T16:35:37.861Z,44.80
2019-02-26T16:38:05.849Z,44.80
2019-02-26T16:40:36.414Z,44.70
2019-02-26T16:43:03.256Z,43.70
2019-02-26T16:45:34.424Z,44.70
2019-02-26T16:47:57.557Z,44.50
2019-02-26T16:50:26.442Z,44.60
2019-02-26T16:52:52.819Z,44.60
2019-02-26T16:55:19.319Z,44.90
2019-02-26T16:57:46.023Z,45.50
2019-02-26T17:00:20.901Z,46.60
2019-02-26T17:02:48.560Z,47.10
2019-02-26T17:05:17.881Z,47.80
2019-02-26T17:07:47.549Z,48.80
2019-02-26T17:10:16.571Z,49.30
2019-02-26T17:12:46.265Z,50.50
2019-02-26T17:15:17.467Z,51.80
2019-02-26T17:17:44.793Z,53.00
2019-02-26T17:20:11.041Z,54.10
2019-02-26T17:22:38.426Z,55.00
2019-02-26T17:25:06.981Z,56.20
2019-02-26T17:27:33.484Z,57.20
2019-02-26T17:29:59.497Z,57.60
2019-02-26T17:32:27.456Z,58.10
2019-02-26T17:34:55.547Z,59.70
2019-02-26T17:37:25.741Z,61.20
2019-02-26T17:39:49.994Z,62.00
2019-02-26T17:42:17.880Z,63.30
2019-02-26T17:44:44.521Z,64.80
2019-02-26T17:47:10.849Z,67.50
2019-02-26T17:49:37.180Z,69.50
2019-02-26T17:52:03.390Z,71.10
2019-02-26T17:54:29.744Z,71.90
2019-02-26T17:57:00.369Z,73.10
2019-02-26T17:59:26.493Z,75.60
2019-02-26T18:01:52.910Z,79.80
2019-02-26T18:04:22.695Z,81.60
2019-02-26T18:06:47.651Z,84.00
2019-02-26T18:09:14.169Z,86.20
2019-02-26T18:11:42.308Z,88.20
2019-02-26T18:14:10.475Z,89.80
2019-02-26T18:16:37.854Z,90.60
2019-02-26T18:19:05.960Z,91.80
2019-02-26T18:21:32.182Z,92.70
2019-02-26T18:23:58.198Z,94.10
2019-02-26T18:26:27.236Z,93.80
2019-02-26T18:28:53.474Z,94.80
2019-02-26T18:31:26.446Z,94.50
2019-02-26T18:33:49.035Z,94.00
2019-02-26T18:36:15.307Z,93.90
2019-02-26T18:38:42.638Z,93.70
2019-02-26T18:41:08.732Z,93.70
2019-02-26T18:43:35.221Z,94.50
2019-02-26T18:46:01.397Z,94.20
2019-02-26T18:48:27.652Z,93.80
2019-02-26T18:50:54.504Z,93.50
2019-02-26T18:53:25.264Z,93.60
2019-02-26T18:55:51.532Z,94.00
2019-02-26T18:58:19.283Z,95.20
2019-02-26T19:00:46.031Z,95.80
2019-02-26T19:03:12.336Z,96.90
2019-02-26T19:05:40.378Z,97.30
2019-02-26T19:08:06.812Z,97.80
2019-02-26T19:10:34.263Z,97.80
2019-02-26T19:13:03.703Z,98.00
2019-02-26T19:15:32.670Z,98.10
2019-02-26T19:18:01.905Z,98.60
2019-02-26T19:20:32.363Z,98.80
2019-02-26T19:22:59.528Z,98.90
2019-02-26T19:25:31.242Z,98.50
2019-02-26T19:27:57.379Z,98.00
2019-02-26T19:30:23.485Z,98.00
2019-02-26T19:32:51.727Z,97.70
2019-02-26T19:35:17.778Z,97.70
2019-02-26T19:37:49.121Z,97.60
2019-02-26T19:40:19.035Z,97.60
2019-02-26T19:42:45.908Z,98.00
2019-02-26T19:45:12.619Z,98.50
2019-02-26T19:47:38.979Z,98.40
2019-02-26T19:50:11.688Z,98.60
2019-02-26T19:52:37.918Z,98.90
2019-02-26T19:55:12.905Z,99.20
2019-02-26T19:57:43.645Z,99.70
2019-02-26T20:00:12.551Z,99.90
2019-02-26T20:02:38.756Z,99.90
2019-02-26T20:05:12.836Z,99.90
2019-02-26T20:07:39.446Z,99.90
2019-02-26T20:10:15.161Z,99.90
2019-02-26T20:12:42.217Z,99.90
2019-02-26T20:15:10.264Z,99.90
2019-02-26T20:17:37.965Z,99.90
2019-02-26T20:20:07.444Z,99.90
2019-02-26T20:22:33.546Z,99.90
2019-02-26T20:25:01.008Z,99.90
2019-02-26T20:27:28.134Z,99.90
2019-02-26T20:29:55.686Z,99.90
2019-02-26T20:32:21.716Z,99.90
2019-02-26T20:34:50.348Z,99.90
2019-02-26T20:37:16.673Z,99.90
2019-02-26T20:39:44.194Z,99.90
2019-02-26T20:42:13.058Z,99.90
2019-02-26T20:44:43.449Z,99.90
2019-02-26T20:47:09.508Z,99.90
2019-02-26T20:49:35.658Z,99.90
2019-02-26T20:52:03.272Z,99.90
2019-02-26T20:54:29.482Z,99.90
2019-02-26T20:56:58.028Z,99.90
2019-02-26T20:59:24.383Z,99.90
2019-02-26T21:01:50.699Z,99.90
2019-02-26T21:04:16.861Z,99.90
2019-02-26T21:06:42.968Z,99.90
2019-02-26T21:09:09.435Z,99.90
2019-02-26T21:11:35.444Z,99.90
2019-02-26T21:14:03.239Z,99.90
2019-02-26T21:16:30.341Z,99.90
2019-02-26T21:19:02.693Z,99.90
2019-02-26T21:21:30.980Z,99.90
2019-02-26T21:24:00.936Z,99.90
2019-02-26T21:26:29.168Z,99.90
2019-02-26T21:28:56.547Z,99.90
2019-02-26T21:31:26.962Z,99.90
2019-02-26T21:33:53.175Z,99.90
2019-02-26T21:36:19.295Z,99.90
2019-02-26T21:38:45.552Z,99.90
2019-02-26T21:41:12.588Z,99.90
2019-02-26T21:43:38.879Z,99.90
2019-02-26T21:46:05.043Z,99.90
2019-02-26T21:48:36.326Z,99.90
2019-02-26T21:51:01.307Z,99.90
2019-02-26T21:53:31.701Z,99.90
2019-02-26T21:55:55.756Z,99.90
2019-02-26T21:58:22.153Z,99.90
2019-02-26T22:00:48.276Z,99.90
2019-02-26T22:03:17.646Z,99.90
2019-02-26T22:05:43.653Z,99.90
2019-02-26T22:08:09.700Z,99.90
2019-02-26T22:10:36.244Z,99.90
2019-02-26T22:13:02.370Z,99.90
2019-02-26T22:15:31.670Z,99.90
2019-02-26T22:17:58.936Z,99.90
2019-02-26T22:20:35.884Z,99.90
2019-02-26T22:22:53.141Z,99.90
2019-02-26T22:25:22.281Z,99.90
2019-02-26T22:27:51.241Z,99.90
2019-02-26T22:30:21.555Z,99.90
2019-02-26T22:32:46.274Z,99.90
2019-02-26T22:35:12.672Z,99.90
2019-02-26T22:37:43.127Z,99.90
2019-02-26T22:40:10.690Z,99.90
2019-02-26T22:42:38.864Z,99.90
2019-02-26T22:45:07.768Z,99.90
2019-02-26T22:47:40.118Z,99.90
2019-02-26T22:50:09.547Z,99.90
2019-02-26T22:52:36.226Z,99.90
2019-02-26T22:55:04.408Z,99.90
2019-02-26T22:57:33.730Z,99.90
2019-02-26T22:59:59.839Z,99.90
2019-02-26T23:02:28.511Z,99.90
2019-02-26T23:04:54.672Z,99.90
2019-02-26T23:07:21.028Z,99.90
2019-02-26T23:09:52.193Z,99.90
2019-02-26T23:12:23.393Z,99.90
2019-02-26T23:14:49.729Z,99.90
2019-02-26T23:17:15.932Z,99.90
2019-02-26T23:19:43.522Z,99.90
2019-02-26T23:22:11.059Z,99.90
2019-02-26T23:24:37.204Z,99.90
2019-02-26T23:27:03.929Z,99.90
2019-02-26T23:29:30.239Z,99.90
2019-02-26T23:31:56.398Z,99.90
2019-02-26T23:34:23.813Z,99.90
2019-02-26T23:36:50.073Z,99.90
2019-02-26T23:39:17.058Z,99.90
2019-02-26T23:41:43.119Z,99.90
2019-02-26T23:44:10.573Z,99.90
2019-02-26T23:46:36.801Z,99.90
2019-02-26T23:49:03.248Z,99.90
2019-02-26T23:51:29.359Z,99.90
2019-02-26T23:53:55.670Z,99.90
2019-02-26T23:56:21.695Z,99.90
2019-02-26T23:58:48.968Z,99.90
